Time;durP1;ratioP1;P1;durP2;ratioP2;P2;SDS_P1;SDS_P2;PMS_P1;PMS_P2;Temp;Humidity;BMP_temperature;BMP_pressure;BME280_temperature;BME280_humidity;BME280_pressure;Samples;Min_cycle;Max_cycle;Signal;HPM_P1;HPM_P2
2023/12/17 00:00:37;;;;;;;9.48;6.00;;;9.50;99.90;;;;;;5070846;28;20439;-69
2023/12/17 00:03:06;;;;;;;11.50;5.68;;;9.50;99.90;;;;;;5070780;28;20055;-69
2023/12/17 00:05:33;;;;;;;9.05;5.18;;;9.50;99.90;;;;;;5070314;28;20049;-70
2023/12/17 00:07:59;;;;;;;11.40;5.43;;;9.50;99.90;;;;;;5070954;28;20044;-70
2023/12/17 00:10:26;;;;;;;13.23;5.78;;;9.50;99.90;;;;;;5070662;28;20059;-70
2023/12/17 00:12:53;;;;;;;9.88;4.90;;;9.50;99.90;;;;;;5070258;28;20414;-70
2023/12/17 00:15:20;;;;;;;11.98;5.15;;;9.50;99.90;;;;;;5070756;28;20045;-70
2023/12/17 00:17:47;;;;;;;9.02;5.32;;;9.60;99.90;;;;;;5070736;28;20049;-70
2023/12/17 00:20:16;;;;;;;9.65;5.68;;;9.70;99.90;;;;;;5069889;28;20044;-70
2023/12/17 00:22:43;;;;;;;14.93;5.38;;;9.60;99.90;;;;;;5068548;28;20451;-70
2023/12/17 00:25:10;;;;;;;11.50;6.00;;;9.60;99.90;;;;;;5070595;28;20454;-70
2023/12/17 00:27:36;;;;;;;13.85;5.60;;;9.60;99.90;;;;;;5072971;28;20558;-70
2023/12/17 00:30:04;;;;;;;13.10;6.13;;;9.60;99.90;;;;;;5074237;28;20500;-71
2023/12/17 00:32:31;;;;;;;9.13;5.30;;;9.60;99.90;;;;;;5074443;28;20450;-70
2023/12/17 00:34:59;;;;;;;9.18;5.28;;;9.70;99.90;;;;;;5073661;28;20060;-70
2023/12/17 00:37:27;;;;;;;13.25;5.45;;;9.60;99.90;;;;;;5074294;28;20114;-71
2023/12/17 00:39:54;;;;;;;11.30;5.15;;;9.70;99.90;;;;;;5074392;28;20451;-71
2023/12/17 00:42:21;;;;;;;13.90;6.10;;;9.60;99.90;;;;;;5074042;28;20052;-70
2023/12/17 00:44:48;;;;;;;10.52;4.75;;;9.90;99.90;;;;;;5073763;28;20098;-70
2023/12/17 00:47:15;;;;;;;9.48;6.00;;;9.70;99.90;;;;;;5073685;28;20094;-70
2023/12/17 00:49:42;;;;;;;9.45;5.40;;;9.60;99.90;;;;;;5071968;28;20048;-69
2023/12/17 00:52:09;;;;;;;11.18;5.13;;;9.60;99.90;;;;;;5074130;28;20098;-70
2023/12/17 00:54:37;;;;;;;9.05;5.38;;;9.60;99.90;;;;;;5073657;28;20048;-71
2023/12/17 00:57:05;;;;;;;11.15;5.75;;;9.60;99.90;;;;;;5073901;28;20117;-71
2023/12/17 00:59:32;;;;;;;11.18;5.30;;;9.60;99.90;;;;;;5075197;28;20090;-70
2023/12/17 01:01:59;;;;;;;12.00;5.55;;;9.60;99.90;;;;;;5073547;28;20045;-71
2023/12/17 01:04:25;;;;;;;12.10;6.55;;;9.60;99.90;;;;;;5075170;28;20427;-71
2023/12/17 01:06:52;;;;;;;12.13;5.63;;;9.60;99.90;;;;;;5073795;28;20374;-71
2023/12/17 01:09:19;;;;;;;17.13;5.47;;;9.60;99.90;;;;;;5073064;28;20048;-70
2023/12/17 01:11:47;;;;;;;10.75;5.20;;;9.60;99.90;;;;;;5073477;28;20048;-70
2023/12/17 01:14:14;;;;;;;10.18;5.28;;;9.60;99.90;;;;;;5073559;28;20561;-69
2023/12/17 01:16:41;;;;;;;6.82;4.60;;;9.60;99.90;;;;;;5071046;28;20053;-70
2023/12/17 01:19:08;;;;;;;9.65;4.93;;;9.60;99.90;;;;;;5073741;28;20497;-70
2023/12/17 01:21:35;;;;;;;10.65;5.28;;;9.60;99.90;;;;;;5073291;28;20094;-71
2023/12/17 01:24:02;;;;;;;12.50;5.32;;;9.60;99.90;;;;;;5072980;28;20185;-71
2023/12/17 01:26:29;;;;;;;9.00;4.50;;;9.60;99.90;;;;;;5073522;28;20071;-70
2023/12/17 01:28:57;;;;;;;7.80;4.63;;;9.60;99.90;;;;;;5073562;28;20071;-71
2023/12/17 01:31:24;;;;;;;14.02;5.45;;;9.60;99.90;;;;;;5073822;28;20545;-71
2023/12/17 01:33:51;;;;;;;9.55;4.90;;;9.60;99.90;;;;;;5073331;28;20056;-71
2023/12/17 01:36:18;;;;;;;10.05;4.43;;;9.60;99.90;;;;;;5073235;28;20044;-70
2023/12/17 01:38:45;;;;;;;9.88;5.22;;;9.60;99.90;;;;;;5071688;28;20546;-70
2023/12/17 01:41:12;;;;;;;9.82;5.18;;;9.60;99.90;;;;;;5071062;28;20048;-70
2023/12/17 01:43:39;;;;;;;11.48;5.43;;;9.60;99.90;;;;;;5072453;28;20090;-70
2023/12/17 01:46:08;;;;;;;14.90;5.72;;;9.60;99.90;;;;;;5073153;28;20458;-69
2023/12/17 01:48:36;;;;;;;10.20;4.88;;;9.60;99.90;;;;;;5073446;28;20170;-69
2023/12/17 01:51:03;;;;;;;11.38;5.32;;;9.60;99.90;;;;;;5072448;28;20968;-69
2023/12/17 01:53:30;;;;;;;10.70;5.20;;;9.60;99.90;;;;;;5073161;28;20106;-69
2023/12/17 01:55:57;;;;;;;10.35;4.78;;;9.60;99.90;;;;;;5072507;28;20492;-70
2023/12/17 01:58:25;;;;;;;8.98;4.43;;;9.60;99.90;;;;;;5072181;28;20044;-70
2023/12/17 02:00:52;;;;;;;12.15;4.55;;;9.60;99.90;;;;;;5070600;28;20305;-70
2023/12/17 02:03:20;;;;;;;7.00;4.32;;;9.60;99.90;;;;;;5072362;28;20513;-70
2023/12/17 02:05:47;;;;;;;10.65;4.53;;;9.60;99.90;;;;;;5071683;28;20101;-69
2023/12/17 02:08:14;;;;;;;9.70;4.93;;;9.70;99.90;;;;;;5072712;28;20048;-69
2023/12/17 02:10:41;;;;;;;7.13;4.88;;;9.60;99.90;;;;;;5072653;28;20082;-70
2023/12/17 02:13:10;;;;;;;8.63;4.90;;;9.60;99.90;;;;;;5071942;28;20408;-69
2023/12/17 02:15:37;;;;;;;7.97;4.82;;;9.60;99.90;;;;;;5072558;28;20053;-69
2023/12/17 02:18:04;;;;;;;9.60;5.10;;;9.60;99.90;;;;;;5072352;28;20117;-70
2023/12/17 02:20:34;;;;;;;8.30;4.60;;;9.60;99.90;;;;;;5071824;28;20489;-70
2023/12/17 02:23:04;;;;;;;13.73;4.70;;;9.70;99.90;;;;;;5072416;28;20167;-69
2023/12/17 02:25:32;;;;;;;13.27;4.47;;;9.70;99.90;;;;;;5072400;28;20094;-70
2023/12/17 02:27:59;;;;;;;10.00;5.15;;;9.70;99.90;;;;;;5071578;28;20067;-70
2023/12/17 02:30:26;;;;;;;9.95;4.97;;;9.70;99.90;;;;;;5072277;28;20052;-69
2023/12/17 02:32:53;;;;;;;11.68;4.50;;;9.70;99.90;;;;;;5103678;28;20048;-69
2023/12/17 02:35:21;;;;;;;9.50;4.70;;;9.70;99.90;;;;;;5072211;28;20103;-69
2023/12/17 02:37:48;;;;;;;8.40;4.43;;;9.70;99.90;;;;;;5072055;28;20098;-70
2023/12/17 02:40:17;;;;;;;9.00;4.43;;;9.70;99.90;;;;;;5071725;28;20518;-70
2023/12/17 02:42:44;;;;;;;5.50;3.72;;;9.70;99.90;;;;;;5071932;28;20532;-70
2023/12/17 02:45:11;;;;;;;11.82;5.60;;;9.70;99.90;;;;;;5071948;28;20227;-70
2023/12/17 02:47:38;;;;;;;7.43;4.88;;;9.70;99.90;;;;;;5071390;28;20064;-70
2023/12/17 02:50:05;;;;;;;11.07;4.57;;;9.70;99.90;;;;;;5072020;28;20110;-70
2023/12/17 02:52:32;;;;;;;8.80;5.05;;;9.70;99.90;;;;;;5071463;28;20522;-70
2023/12/17 02:54:59;;;;;;;13.00;4.55;;;9.80;99.90;;;;;;5071006;28;20565;-70
2023/12/17 02:57:28;;;;;;;10.43;4.82;;;9.70;99.90;;;;;;5103430;28;20431;-70
2023/12/17 02:59:56;;;;;;;9.98;4.47;;;9.70;99.90;;;;;;5071561;28;21073;-70
2023/12/17 03:02:22;;;;;;;9.05;4.60;;;9.70;99.90;;;;;;5070920;28;20051;-71
2023/12/17 03:04:49;;;;;;;9.80;3.97;;;9.70;99.90;;;;;;5071535;28;20048;-71
2023/12/17 03:07:16;;;;;;;8.18;4.60;;;9.60;99.90;;;;;;5070791;28;20484;-71
2023/12/17 03:09:43;;;;;;;9.55;4.50;;;9.60;99.90;;;;;;5068640;28;20044;-71
2023/12/17 03:12:10;;;;;;;10.52;4.53;;;9.60;99.90;;;;;;5071131;28;20145;-71
2023/12/17 03:14:38;;;;;;;10.15;4.63;;;9.60;99.90;;;;;;5071385;28;20097;-70
2023/12/17 03:17:05;;;;;;;8.38;4.22;;;9.60;99.90;;;;;;5070448;28;20377;-70
2023/12/17 03:19:32;;;;;;;10.27;4.10;;;9.60;99.90;;;;;;5071238;28;20102;-70
2023/12/17 03:21:59;;;;;;;12.05;4.65;;;9.60;99.90;;;;;;5102473;28;20097;-70
2023/12/17 03:24:26;;;;;;;8.32;4.32;;;9.60;99.90;;;;;;5071325;28;20072;-70
2023/12/17 03:26:52;;;;;;;13.70;4.82;;;9.60;99.90;;;;;;5071105;28;20444;-70
2023/12/17 03:29:20;;;;;;;8.02;4.03;;;9.70;99.90;;;;;;5070593;28;20036;-70
2023/12/17 03:31:48;;;;;;;8.50;3.97;;;9.50;99.90;;;;;;5071222;28;20098;-70
2023/12/17 03:34:15;;;;;;;8.60;4.38;;;9.50;99.90;;;;;;5069057;28;20059;-71
2023/12/17 03:36:42;;;;;;;9.68;4.20;;;9.50;99.90;;;;;;5070302;28;20052;-70
2023/12/17 03:39:09;;;;;;;9.20;4.40;;;9.60;99.90;;;;;;5070960;28;20051;-71
2023/12/17 03:41:36;;;;;;;10.70;4.68;;;9.60;99.90;;;;;;5071115;28;20455;-69
2023/12/17 03:44:03;;;;;;;9.10;4.45;;;9.50;99.90;;;;;;5070176;28;20057;-70
2023/12/17 03:46:29;;;;;;;6.90;4.25;;;9.50;99.90;;;;;;5071033;28;20051;-70
2023/12/17 03:48:58;;;;;;;8.63;4.10;;;9.50;99.90;;;;;;5070967;28;20102;-70
2023/12/17 03:51:25;;;;;;;11.80;5.25;;;9.50;99.90;;;;;;5070739;28;20045;-70
2023/12/17 03:53:51;;;;;;;11.88;4.47;;;9.60;99.90;;;;;;5071080;28;20060;-70
2023/12/17 03:56:18;;;;;;;16.77;5.18;;;9.50;99.90;;;;;;5070810;28;20052;-70
2023/12/17 03:58:45;;;;;;;9.40;4.18;;;9.50;99.90;;;;;;5070116;28;20389;-70
2023/12/17 04:01:12;;;;;;;19.15;5.45;;;9.60;99.90;;;;;;5070513;28;20147;-70
2023/12/17 04:03:39;;;;;;;10.82;5.30;;;9.50;99.90;;;;;;5069138;28;20097;-70
2023/12/17 04:06:08;;;;;;;8.98;4.75;;;9.50;99.90;;;;;;5070396;28;20102;-70
2023/12/17 04:08:35;;;;;;;12.18;5.18;;;9.50;99.90;;;;;;5070909;28;20496;-70
2023/12/17 04:11:02;;;;;;;12.93;4.90;;;9.50;99.90;;;;;;5070511;28;20056;-69
2023/12/17 04:13:29;;;;;;;9.43;5.18;;;9.50;99.90;;;;;;5070317;28;20052;-69
2023/12/17 04:15:56;;;;;;;7.25;4.70;;;9.50;99.90;;;;;;5070976;28;20090;-69
2023/12/17 04:18:23;;;;;;;11.57;4.90;;;9.60;99.90;;;;;;5069903;28;20056;-70
2023/12/17 04:20:50;;;;;;;10.82;5.50;;;9.60;99.90;;;;;;5070732;28;20488;-69
2023/12/17 04:23:18;;;;;;;10.48;5.03;;;9.60;99.90;;;;;;5070751;28;20520;-69
2023/12/17 04:25:45;;;;;;;13.63;5.88;;;9.50;99.90;;;;;;5070113;28;20373;-69
2023/12/17 04:28:12;;;;;;;9.27;5.13;;;9.50;99.90;;;;;;5070541;28;20056;-68
2023/12/17 04:30:39;;;;;;;7.32;4.55;;;9.50;99.90;;;;;;5070557;28;20048;-69
2023/12/17 04:33:05;;;;;;;12.07;4.68;;;9.60;99.90;;;;;;5070198;28;20060;-69
2023/12/17 04:35:32;;;;;;;10.15;4.82;;;9.50;99.90;;;;;;5070766;28;20438;-69
2023/12/17 04:37:59;;;;;;;10.70;4.78;;;9.50;99.90;;;;;;5070248;28;20094;-69
2023/12/17 04:40:27;;;;;;;10.70;4.88;;;9.50;99.90;;;;;;5070006;28;20045;-70
2023/12/17 04:42:54;;;;;;;10.70;4.97;;;9.50;99.90;;;;;;5070323;28;20052;-70
2023/12/17 04:45:21;;;;;;;12.82;5.18;;;9.50;99.90;;;;;;5070505;28;20075;-69
2023/12/17 04:47:48;;;;;;;11.27;6.28;;;9.50;99.90;;;;;;5067605;28;20037;-70
2023/12/17 04:50:15;;;;;;;8.70;5.07;;;9.50;99.90;;;;;;5070459;28;20424;-70
2023/12/17 04:52:42;;;;;;;10.63;5.63;;;9.50;99.90;;;;;;5070425;28;20056;-69
2023/12/17 04:55:09;;;;;;;9.82;6.00;;;9.50;99.90;;;;;;5069728;28;20519;-70
2023/12/17 04:57:37;;;;;;;12.70;6.75;;;9.50;99.90;;;;;;5070120;28;20048;-70
2023/12/17 05:00:06;;;;;;;15.88;6.63;;;9.50;99.90;;;;;;5070398;28;20491;-70
2023/12/17 05:02:33;;;;;;;12.38;6.03;;;9.50;99.90;;;;;;5069618;28;20059;-69
2023/12/17 05:04:59;;;;;;;11.13;5.90;;;9.50;99.90;;;;;;5070257;28;20496;-69
2023/12/17 05:07:26;;;;;;;10.55;5.65;;;9.50;99.90;;;;;;5069605;28;20063;-70
2023/12/17 05:09:53;;;;;;;11.82;5.80;;;9.50;99.90;;;;;;5070303;28;20041;-69
2023/12/17 05:12:20;;;;;;;13.05;6.47;;;9.50;99.90;;;;;;5070095;28;20045;-69
2023/12/17 05:14:48;;;;;;;18.38;6.20;;;9.50;99.90;;;;;;5072862;28;20048;-69
2023/12/17 05:17:15;;;;;;;14.18;5.90;;;9.50;99.90;;;;;;5072870;28;20098;-70
2023/12/17 05:19:42;;;;;;;10.50;5.80;;;9.50;99.90;;;;;;5073392;28;20102;-70
2023/12/17 05:22:09;;;;;;;13.52;6.50;;;9.40;99.90;;;;;;5073192;28;20443;-69
2023/12/17 05:24:36;;;;;;;11.23;5.65;;;9.40;99.90;;;;;;5073679;28;20465;-69
2023/12/17 05:27:03;;;;;;;11.27;5.57;;;9.50;99.90;;;;;;5073702;28;20076;-72
2023/12/17 05:29:30;;;;;;;11.30;5.65;;;9.40;99.90;;;;;;5073222;28;20040;-69
2023/12/17 05:31:58;;;;;;;12.75;6.60;;;9.40;99.90;;;;;;5073468;28;20048;-69
2023/12/17 05:34:27;;;;;;;15.90;6.32;;;9.30;99.90;;;;;;5073391;28;20053;-69
2023/12/17 05:36:54;;;;;;;14.68;6.65;;;9.30;99.90;;;;;;5073000;28;20397;-69
2023/12/17 05:39:20;;;;;;;10.45;6.03;;;9.30;99.90;;;;;;5073017;28;20382;-69
2023/12/17 05:41:47;;;;;;;14.88;6.85;;;9.30;99.90;;;;;;5073438;28;20451;-70
2023/12/17 05:44:14;;;;;;;11.52;6.60;;;9.30;99.90;;;;;;5072308;28;20060;-70
2023/12/17 05:46:41;;;;;;;11.63;6.70;;;9.30;99.90;;;;;;5073232;28;20550;-69
2023/12/17 05:49:09;;;;;;;13.27;6.50;;;9.30;99.90;;;;;;5070691;28;20554;-71
2023/12/17 05:51:36;;;;;;;14.13;6.82;;;9.30;99.90;;;;;;5071987;28;20122;-69
2023/12/17 05:54:03;;;;;;;15.13;6.70;;;9.30;99.90;;;;;;5072779;28;20052;-69
2023/12/17 05:56:30;;;;;;;11.70;6.63;;;9.30;99.90;;;;;;5073065;28;20094;-70
2023/12/17 05:58:57;;;;;;;12.95;6.28;;;9.40;99.90;;;;;;5072178;28;20041;-69
2023/12/17 06:01:24;;;;;;;13.07;6.75;;;9.30;99.90;;;;;;5072758;28;20052;-70
2023/12/17 06:03:51;;;;;;;13.10;5.97;;;9.30;99.90;;;;;;5072322;28;20048;-69
2023/12/17 06:06:19;;;;;;;11.32;6.60;;;9.30;99.90;;;;;;5072033;28;20078;-70
2023/12/17 06:08:46;;;;;;;12.43;6.63;;;9.30;99.90;;;;;;5072544;28;20049;-70
2023/12/17 06:11:16;;;;;;;13.98;7.00;;;9.30;99.90;;;;;;5072440;28;20114;-69
2023/12/17 06:13:44;;;;;;;13.18;6.93;;;9.20;99.90;;;;;;5072853;28;20066;-70
2023/12/17 06:16:11;;;;;;;10.73;6.75;;;9.20;99.90;;;;;;5072960;28;20488;-70
2023/12/17 06:18:39;;;;;;;16.88;7.68;;;9.20;99.90;;;;;;5071945;28;20043;-70
2023/12/17 06:21:06;;;;;;;12.07;7.22;;;9.20;99.90;;;;;;5072566;28;20522;-70
2023/12/17 06:23:34;;;;;;;13.73;7.15;;;9.20;99.90;;;;;;5072479;28;20052;-70
2023/12/17 06:26:04;;;;;;;11.30;7.30;;;9.30;99.90;;;;;;5103360;28;20045;-70
2023/12/17 06:28:31;;;;;;;14.27;8.63;;;9.20;99.90;;;;;;5072345;28;20111;-70
2023/12/17 06:30:58;;;;;;;14.18;8.43;;;9.30;99.90;;;;;;5072043;28;20044;-69
2023/12/17 06:33:24;;;;;;;13.85;8.57;;;9.30;99.90;;;;;;5071322;28;20071;-69
2023/12/17 06:35:51;;;;;;;14.20;7.55;;;9.30;99.90;;;;;;5065238;28;20453;-70
2023/12/17 06:38:18;;;;;;;15.75;8.50;;;9.30;99.90;;;;;;5070619;28;20468;-70
2023/12/17 06:40:47;;;;;;;14.27;8.02;;;9.30;99.90;;;;;;5071276;28;20045;-70
2023/12/17 06:43:14;;;;;;;13.20;8.07;;;9.30;99.90;;;;;;5069122;28;20053;-70
2023/12/17 06:45:41;;;;;;;15.13;8.98;;;9.30;99.90;;;;;;5070735;28;20378;-70
2023/12/17 06:48:09;;;;;;;12.40;8.10;;;9.30;99.90;;;;;;5071020;28;20048;-70
2023/12/17 06:50:36;;;;;;;14.35;7.90;;;9.30;99.90;;;;;;5069496;28;20378;-70
2023/12/17 06:53:02;;;;;;;15.00;8.55;;;9.30;99.90;;;;;;5070945;28;20382;-70
2023/12/17 06:55:29;;;;;;;15.85;9.20;;;9.40;99.90;;;;;;5071567;28;20458;-70
2023/12/17 06:57:57;;;;;;;16.73;8.50;;;9.20;99.90;;;;;;5071123;28;20443;-70
2023/12/17 07:00:24;;;;;;;14.00;7.22;;;9.30;99.90;;;;;;5070012;28;20047;-70
2023/12/17 07:02:52;;;;;;;16.77;7.38;;;9.20;99.90;;;;;;5071157;28;20492;-70
2023/12/17 07:05:19;;;;;;;14.15;7.32;;;9.20;99.90;;;;;;5070712;28;20052;-70
2023/12/17 07:07:48;;;;;;;15.10;6.43;;;9.20;99.90;;;;;;5070454;28;20044;-70
2023/12/17 07:10:15;;;;;;;12.77;6.45;;;9.20;99.90;;;;;;5098673;28;20480;-71
2023/12/17 07:12:42;;;;;;;11.07;6.07;;;9.20;99.90;;;;;;5070975;28;20076;-71
2023/12/17 07:15:11;;;;;;;12.35;5.70;;;9.20;99.90;;;;;;5069737;28;20048;-71
2023/12/17 07:17:38;;;;;;;9.77;6.68;;;9.20;99.90;;;;;;5071256;28;20450;-71
2023/12/17 07:20:07;;;;;;;16.15;6.20;;;9.20;99.90;;;;;;5070394;28;20071;-70
2023/12/17 07:22:34;;;;;;;12.38;6.13;;;9.20;99.90;;;;;;5070258;28;20048;-70
2023/12/17 07:25:01;;;;;;;14.30;5.05;;;9.20;99.90;;;;;;5070706;28;20405;-70
2023/12/17 07:27:28;;;;;;;14.98;6.63;;;9.20;99.90;;;;;;5070978;28;20052;-68
2023/12/17 07:29:55;;;;;;;11.13;5.32;;;9.20;99.90;;;;;;5070063;28;20052;-70
2023/12/17 07:32:23;;;;;;;12.77;6.15;;;9.20;99.90;;;;;;5070742;28;20048;-70
2023/12/17 07:34:50;;;;;;;15.63;6.25;;;9.20;99.90;;;;;;5070621;28;20109;-70
2023/12/17 07:37:17;;;;;;;11.88;6.13;;;9.20;99.90;;;;;;5069475;28;20106;-71
2023/12/17 07:39:44;;;;;;;10.68;6.85;;;9.30;99.90;;;;;;5070587;28;20193;-70
2023/12/17 07:42:11;;;;;;;14.02;6.32;;;9.20;99.90;;;;;;5069996;28;20519;-71
2023/12/17 07:44:38;;;;;;;13.25;6.82;;;9.20;99.90;;;;;;5070150;28;20056;-71
2023/12/17 07:47:05;;;;;;;17.90;6.47;;;9.20;99.90;;;;;;5070619;28;20097;-70
2023/12/17 07:49:34;;;;;;;14.15;6.95;;;9.20;99.90;;;;;;5069950;28;20052;-71
2023/12/17 07:52:00;;;;;;;16.73;5.95;;;9.10;99.90;;;;;;5068482;28;20048;-71
2023/12/17 07:54:29;;;;;;;11.50;6.70;;;9.10;99.90;;;;;;5069829;28;20064;-71
2023/12/17 07:56:56;;;;;;;13.98;6.50;;;9.10;99.90;;;;;;5069254;28;20415;-70
2023/12/17 07:59:23;;;;;;;13.45;6.55;;;9.10;99.90;;;;;;5064272;28;20047;-70
2023/12/17 08:01:50;;;;;;;12.40;6.43;;;9.10;99.90;;;;;;5069125;28;20122;-70
2023/12/17 08:04:16;;;;;;;11.48;6.85;;;9.10;99.90;;;;;;5069126;28;20177;-70
2023/12/17 08:06:45;;;;;;;13.43;6.78;;;9.10;99.90;;;;;;5068971;28;20053;-71
2023/12/17 08:09:12;;;;;;;13.38;6.43;;;9.10;99.90;;;;;;5069816;28;20053;-70
2023/12/17 08:11:39;;;;;;;10.68;6.47;;;9.10;99.90;;;;;;5068426;28;20056;-71
2023/12/17 08:14:05;;;;;;;13.45;6.63;;;9.10;99.90;;;;;;5069744;28;20086;-71
2023/12/17 08:16:32;;;;;;;11.63;6.68;;;9.10;99.90;;;;;;5069954;28;20052;-71
2023/12/17 08:18:59;;;;;;;12.65;6.15;;;9.10;99.90;;;;;;5069014;28;20041;-70
2023/12/17 08:21:26;;;;;;;16.48;6.32;;;9.10;99.90;;;;;;5069187;28;20060;-71
2023/12/17 08:23:54;;;;;;;14.13;5.85;;;9.10;99.90;;;;;;5102722;28;20063;-71
2023/12/17 08:26:21;;;;;;;11.95;6.43;;;9.10;99.90;;;;;;5068418;28;20070;-71
2023/12/17 08:28:48;;;;;;;15.35;6.55;;;9.10;99.90;;;;;;5069586;28;20094;-71
2023/12/17 08:31:15;;;;;;;17.10;7.03;;;9.00;99.90;;;;;;5068535;28;20098;-70
2023/12/17 08:33:42;;;;;;;13.52;6.97;;;9.00;99.90;;;;;;5067062;28;20114;-69
2023/12/17 08:36:10;;;;;;;14.93;7.00;;;9.00;99.90;;;;;;5069262;28;20114;-71
2023/12/17 08:38:37;;;;;;;17.30;7.32;;;9.00;99.90;;;;;;5068773;28;20119;-71
2023/12/17 08:41:06;;;;;;;16.05;7.25;;;9.00;99.90;;;;;;5067520;28;20052;-71
2023/12/17 08:43:33;;;;;;;18.15;7.90;;;9.00;99.90;;;;;;5066695;28;20140;-70
2023/12/17 08:46:00;;;;;;;17.55;9.52;;;9.00;99.90;;;;;;5068526;28;20059;-71
2023/12/17 08:48:26;;;;;;;19.00;8.85;;;9.00;99.90;;;;;;5072323;28;20090;-71
2023/12/17 08:50:53;;;;;;;15.70;8.77;;;9.10;99.90;;;;;;5072276;28;20536;-70
2023/12/17 08:53:22;;;;;;;18.20;9.02;;;9.10;99.90;;;;;;5072618;28;20451;-71
2023/12/17 08:55:49;;;;;;;17.63;9.63;;;9.10;99.90;;;;;;5072353;28;20079;-70
2023/12/17 08:58:18;;;;;;;17.83;9.98;;;9.10;99.90;;;;;;5073057;28;20055;-69
2023/12/17 09:00:45;;;;;;;16.27;10.68;;;9.10;99.90;;;;;;5103336;28;20044;-70
2023/12/17 09:03:12;;;;;;;24.05;11.02;;;9.10;99.90;;;;;;5072551;28;20105;-71
2023/12/17 09:05:39;;;;;;;21.90;10.25;;;9.10;99.90;;;;;;5073101;28;20454;-69
2023/12/17 09:08:06;;;;;;;19.80;10.82;;;9.10;99.90;;;;;;5070056;28;20052;-70
2023/12/17 09:10:33;;;;;;;29.98;12.30;;;9.10;99.90;;;;;;5072728;28;20044;-69
2023/12/17 09:13:00;;;;;;;23.83;11.30;;;9.20;99.90;;;;;;5072871;28;20461;-70
2023/12/17 09:15:28;;;;;;;24.23;12.35;;;9.20;99.90;;;;;;5072056;28;20496;-70
2023/12/17 09:17:55;;;;;;;25.48;12.90;;;9.20;99.90;;;;;;5072947;28;20385;-70
2023/12/17 09:20:22;;;;;;;22.17;11.80;;;9.20;99.90;;;;;;5071787;28;20390;-70
2023/12/17 09:22:49;;;;;;;22.98;11.05;;;9.20;99.90;;;;;;5070636;28;20504;-69
2023/12/17 09:25:16;;;;;;;19.70;11.80;;;9.30;99.90;;;;;;5072416;28;20052;-70
2023/12/17 09:27:42;;;;;;;22.35;11.43;;;9.20;99.90;;;;;;5072265;28;20048;-70
2023/12/17 09:30:10;;;;;;;22.48;10.27;;;9.30;99.90;;;;;;5072272;28;20040;-70
2023/12/17 09:32:38;;;;;;;21.95;10.95;;;9.30;99.90;;;;;;5070785;28;20049;-71
2023/12/17 09:35:10;;;;;;;23.05;10.93;;;9.40;99.90;;;;;;5070198;28;20060;-71
2023/12/17 09:37:37;;;;;;;23.35;9.88;;;9.30;99.90;;;;;;5071087;28;20045;-71
2023/12/17 09:40:04;;;;;;;15.23;9.90;;;9.30;99.90;;;;;;5072850;28;20117;-71
2023/12/17 09:42:31;;;;;;;21.80;9.80;;;9.40;99.90;;;;;;5072314;28;20499;-70
2023/12/17 09:44:59;;;;;;;20.80;9.45;;;9.40;99.90;;;;;;5072657;28;20044;-70
2023/12/17 09:47:26;;;;;;;27.17;9.50;;;9.40;99.90;;;;;;5072906;28;20048;-71
2023/12/17 09:49:54;;;;;;;18.27;9.05;;;9.40;99.90;;;;;;5072413;28;20045;-70
2023/12/17 09:52:25;;;;;;;21.63;8.98;;;9.50;99.90;;;;;;5072679;28;20052;-71
2023/12/17 09:54:52;;;;;;;;;;;9.50;99.90;;;;;;5072700;28;20411;-70
2023/12/17 09:57:18;;;;;;;15.52;7.68;;;9.60;99.90;;;;;;5072256;28;19920;-71
2023/12/17 09:59:45;;;;;;;14.85;7.97;;;9.60;99.90;;;;;;5071151;28;20044;-70
2023/12/17 10:02:15;;;;;;;18.83;8.68;;;9.60;99.90;;;;;;5072481;28;20470;-71
2023/12/17 10:04:42;;;;;;;15.57;8.00;;;9.70;99.90;;;;;;5072295;28;20105;-71
2023/12/17 10:07:10;;;;;;;20.20;8.05;;;9.60;99.90;;;;;;5104275;28;20454;-71
2023/12/17 10:09:37;;;;;;;16.33;7.60;;;9.70;99.90;;;;;;5072693;28;20543;-71
2023/12/17 10:12:05;;;;;;;24.02;8.60;;;10.70;99.90;;;;;;5071816;28;20098;-70
2023/12/17 10:14:32;;;;;;;18.17;8.35;;;9.60;99.90;;;;;;5070461;28;20400;-71
2023/12/17 10:17:00;;;;;;;18.42;8.25;;;9.60;99.90;;;;;;5071861;28;20064;-71
2023/12/17 10:19:27;;;;;;;17.95;8.05;;;9.70;99.90;;;;;;5072307;28;20476;-71
2023/12/17 10:21:53;;;;;;;26.05;8.40;;;9.70;99.90;;;;;;5071887;28;20051;-71
2023/12/17 10:24:37;;;;;;;35.05;10.15;;;9.70;99.90;;;;;;5071572;28;20587;-71
2023/12/17 10:27:15;;;;;;;15.10;8.63;;;9.60;99.90;;;;;;5072142;28;20091;-71
2023/12/17 10:29:44;;;;;;;15.27;7.72;;;9.60;99.90;;;;;;5073234;28;20080;-70
2023/12/17 10:32:12;;;;;;;14.40;8.30;;;9.80;99.90;;;;;;5071455;28;20052;-70
2023/12/17 10:34:40;;;;;;;17.45;8.27;;;9.70;99.90;;;;;;5072105;28;20102;-70
2023/12/17 10:37:08;;;;;;;14.07;8.80;;;9.70;99.90;;;;;;5071828;28;20044;-71
2023/12/17 10:39:37;;;;;;;22.13;10.07;;;9.60;99.90;;;;;;5071068;28;20083;-71
2023/12/17 10:42:05;;;;;;;21.67;10.57;;;9.60;99.90;;;;;;5071949;28;20455;-70
2023/12/17 10:44:33;;;;;;;23.73;12.05;;;9.60;99.90;;;;;;5071532;28;20098;-70
2023/12/17 10:47:04;;;;;;;27.67;11.65;;;9.60;99.90;;;;;;5071291;28;20097;-71
2023/12/17 10:49:31;;;;;;;63.83;22.15;;;9.60;99.90;;;;;;5071458;28;20125;-71
2023/12/17 10:51:59;;;;;;;20.73;12.38;;;9.70;99.90;;;;;;5071534;28;20056;-71
2023/12/17 10:54:26;;;;;;;21.02;13.05;;;9.70;99.90;;;;;;5069285;28;20055;-71
2023/12/17 10:56:57;;;;;;;21.77;13.05;;;9.70;99.90;;;;;;5071255;28;20044;-70
2023/12/17 10:59:27;;;;;;;31.05;14.50;;;9.70;99.90;;;;;;5070954;28;20052;-70
2023/12/17 11:01:56;;;;;;;24.03;15.03;;;9.70;99.90;;;;;;5071535;28;20400;-71
2023/12/17 11:04:24;;;;;;;29.92;15.43;;;9.70;99.90;;;;;;5102979;28;20097;-71
2023/12/17 11:06:51;;;;;;;28.23;15.35;;;9.70;99.90;;;;;;5070835;28;20051;-71
2023/12/17 11:09:19;;;;;;;30.48;15.75;;;9.70;99.90;;;;;;5071399;28;20114;-70
2023/12/17 11:11:47;;;;;;;26.58;14.65;;;9.70;99.90;;;;;;5070587;28;20052;-71
2023/12/17 11:14:15;;;;;;;27.27;14.80;;;9.70;99.90;;;;;;5070678;28;20102;-71
2023/12/17 11:16:42;;;;;;;27.73;14.93;;;9.70;99.90;;;;;;5071144;28;20048;-72
2023/12/17 11:19:12;;;;;;;26.02;15.57;;;9.80;99.90;;;;;;5069242;28;20439;-72
2023/12/17 11:21:41;;;;;;;25.98;13.77;;;9.80;99.90;;;;;;5070112;28;20040;-72
2023/12/17 11:24:08;;;;;;;26.17;13.77;;;9.90;99.90;;;;;;5071161;28;20056;-70
2023/12/17 11:26:43;;;;;;;18.73;12.55;;;9.90;99.90;;;;;;5071142;28;20052;-71
2023/12/17 11:29:34;;;;;;;21.02;13.50;;;10.00;99.90;;;;;;5070479;28;20052;-72
2023/12/17 11:32:01;;;;;;;;;;;10.00;99.90;;;;;;5071445;28;20618;-71
2023/12/17 11:34:30;;;;;;;27.40;12.77;;;10.10;99.90;;;;;;5070010;28;20380;-70
2023/12/17 11:36:57;;;;;;;25.20;13.00;;;10.20;99.90;;;;;;5070795;28;20048;-72
2023/12/17 11:39:25;;;;;;;22.55;11.80;;;10.20;99.90;;;;;;5070983;28;20447;-70
2023/12/17 11:41:52;;;;;;;15.88;12.10;;;10.50;99.90;;;;;;5068941;28;20043;-71
2023/12/17 11:44:19;;;;;;;23.83;12.40;;;10.70;99.90;;;;;;5070504;28;20088;-72
2023/12/17 11:46:49;;;;;;;18.80;10.45;;;10.90;99.90;;;;;;5070564;28;20055;-71
2023/12/17 11:49:23;;;;;;;16.55;11.10;;;11.00;99.90;;;;;;5070289;28;20052;-71
2023/12/17 11:51:50;;;;;;;15.20;10.40;;;11.30;99.90;;;;;;5070647;28;20076;-71
2023/12/17 11:54:21;;;;;;;17.60;11.02;;;11.50;99.90;;;;;;5070717;28;20087;-71
2023/12/17 11:56:49;;;;;;;17.13;10.18;;;11.80;99.90;;;;;;5071327;28;20353;-71
2023/12/17 11:59:16;;;;;;;12.98;10.00;;;11.90;99.90;;;;;;5070636;28;20114;-71
2023/12/17 12:01:43;;;;;;;19.33;11.45;;;11.80;99.90;;;;;;5070218;28;20089;-71
2023/12/17 12:04:12;;;;;;;18.83;10.40;;;11.90;99.90;;;;;;5070004;28;20056;-71
2023/12/17 12:06:39;;;;;;;13.75;9.63;;;11.80;99.90;;;;;;5070361;28;20109;-71
2023/12/17 12:09:19;;;;;;;14.15;10.05;;;12.00;99.90;;;;;;5070501;28;20064;-71
2023/12/17 12:11:46;;;;;;;18.50;9.47;;;12.20;99.90;;;;;;5069576;28;20131;-71
2023/12/17 12:14:13;;;;;;;14.93;9.77;;;12.20;99.90;;;;;;5070479;28;20303;-71
2023/12/17 12:16:41;;;;;;;17.92;10.10;;;12.90;99.90;;;;;;5069621;28;20048;-71
2023/12/17 12:19:09;;;;;;;16.00;10.00;;;13.40;99.90;;;;;;5071405;28;20044;-72
2023/12/17 12:21:37;;;;;;;16.60;9.18;;;13.40;99.90;;;;;;5070331;28;20071;-72
2023/12/17 12:24:10;;;;;;;20.38;10.63;;;13.70;99.90;;;;;;5073789;28;20109;-71
2023/12/17 12:26:38;;;;;;;16.35;10.10;;;13.40;99.90;;;;;;5074306;28;20049;-71
2023/12/17 12:29:07;;;;;;;21.60;11.60;;;13.30;99.90;;;;;;5074193;28;20083;-72
2023/12/17 12:31:34;;;;;;;12.35;9.50;;;13.40;99.90;;;;;;5074747;28;20053;-71
2023/12/17 12:34:04;;;;;;;15.50;10.65;;;13.00;99.90;;;;;;5074493;28;20419;-71
2023/12/17 12:36:45;;;;;;;20.47;11.00;;;13.00;99.90;;;;;;5072276;28;20507;-71
2023/12/17 12:39:12;;;;;;;17.13;10.70;;;13.00;99.90;;;;;;5073719;28;20455;-71
2023/12/17 12:41:44;;;;;;;14.57;10.75;;;13.30;99.90;;;;;;5073973;28;20044;-71
2023/12/17 12:44:14;;;;;;;14.45;10.27;;;13.30;99.90;;;;;;5073760;28;20109;-71
2023/12/17 12:46:40;;;;;;;17.42;11.77;;;13.70;99.90;;;;;;5073518;28;20400;-71